CheckWX is a tool to help pilots better visualize weather data.  It is not intended as a substitute for an official pre-flight weather briefing.

01:30:04 UTC

KHRT METAR
Hurlburt Field Airport
Mary Esther, Florida, USA
Current

31 mins ago

KHRT 150059Z AUTO 04004KT 10SM OVC090 23/22 A3005 RMK AO2 RAE56DZB56E59 SLP178 $
Observed
Oct-15 @ 00:59 UTC
Wind
  • 040° at 4 KTS
Visibility
10 SM
Flight Rules
VFR
Cloud Levels
  • Overcast at 9,000' AGL
Temperature
23°C / 73°F
Dewpoint
22°C / 72°F
Humidity
94%
Altimeter
30.05" Hg
Pressure
1017.62 hPa
Previous

34 mins ago

KHRT 150056Z AUTO 05004KT 10SM -RA OVC090 23/22 A3005 RMK AO2 RAE31DZB31E33DZB44E46RAB46 SLP178 P0001 T02330224 $
Observed
Oct-15 @ 00:56 UTC
Wind
  • 050° at 4 KTS
Visibility
10 SM
Flight Rules
VFR
Conditions
Light Rain
Cloud Levels
  • Overcast at 9,000' AGL
Temperature
23°C / 73°F
Dewpoint
22°C / 72°F
Humidity
94%
Altimeter
30.05" Hg
Pressure
1017.62 hPa
Current Rain
0.01"
Previous

46 mins ago

KHRT 150044Z AUTO 00000KT 10SM -DZ FEW070 OVC090 23/22 A3005 RMK AO2 RAE31DZB31E33DZB44 SLP178 $
Observed
Oct-15 @ 00:44 UTC
Visibility
10 SM
Flight Rules
VFR
Conditions
Light Drizzle
Cloud Levels
  • Few at 7,000' AGL
  • Overcast at 9,000' AGL
Temperature
23°C / 73°F
Dewpoint
22°C / 72°F
Humidity
94%
Altimeter
30.05" Hg
Pressure
1017.62 hPa